Time;durP1;ratioP1;P1;durP2;ratioP2;P2;SDS_P1;SDS_P2;PMS_P1;PMS_P2;Temp;Humidity;BMP_temperature;BMP_pressure;BME280_temperature;BME280_humidity;BME280_pressure;Samples;Min_cycle;Max_cycle;Signal;HPM_P1;HPM_P2
2023/09/10 00:02:19;;;;;;;18.42;11.98;;;14.50;99.90;;;;;;5048062;28;20049;-64
2023/09/10 00:04:45;;;;;;;17.33;12.48;;;14.40;99.90;;;;;;5041137;28;20410;-64
2023/09/10 00:07:10;;;;;;;18.15;11.68;;;14.40;99.90;;;;;;5020276;28;20030;-63
2023/09/10 00:09:36;;;;;;;16.80;11.63;;;14.40;99.90;;;;;;5038661;28;20540;-63
2023/09/10 00:12:04;;;;;;;14.90;10.98;;;14.40;99.90;;;;;;5029263;28;20083;-64
2023/09/10 00:14:29;;;;;;;15.85;11.85;;;14.30;99.90;;;;;;5043079;28;20029;-63
2023/09/10 00:16:55;;;;;;;14.15;10.13;;;14.30;99.90;;;;;;5029001;28;20037;-63
2023/09/10 00:19:21;;;;;;;13.38;10.20;;;14.30;99.90;;;;;;5046459;28;20087;-64
2023/09/10 00:21:47;;;;;;;12.95;9.80;;;14.30;99.90;;;;;;5029636;28;20124;-62
2023/09/10 00:24:13;;;;;;;13.32;10.07;;;14.20;99.90;;;;;;5040369;28;20115;-59
2023/09/10 00:26:38;;;;;;;14.13;10.50;;;14.20;99.90;;;;;;5022543;28;20053;-58
2023/09/10 00:29:04;;;;;;;14.85;11.02;;;14.20;99.90;;;;;;5047369;28;20048;-58
2023/09/10 00:31:30;;;;;;;13.75;11.23;;;14.10;99.90;;;;;;5044553;28;20049;-59
2023/09/10 00:33:55;;;;;;;16.92;12.38;;;14.10;99.90;;;;;;5027281;28;20075;-60
2023/09/10 00:36:21;;;;;;;16.02;11.57;;;14.10;99.90;;;;;;5037905;28;20037;-60
2023/09/10 00:38:46;;;;;;;19.27;13.35;;;14.10;99.90;;;;;;5047835;28;20033;-58
2023/09/10 00:41:12;;;;;;;23.60;15.13;;;14.00;99.90;;;;;;5049416;28;20340;-58
2023/09/10 00:43:37;;;;;;;23.45;15.13;;;14.00;99.90;;;;;;5025979;28;20030;-58
2023/09/10 00:46:03;;;;;;;21.85;15.23;;;14.00;99.90;;;;;;5033006;28;20034;-58
2023/09/10 00:48:29;;;;;;;19.48;14.45;;;14.00;99.90;;;;;;5046282;28;20036;-58
2023/09/10 00:50:55;;;;;;;21.60;14.82;;;13.90;99.90;;;;;;5042069;28;20026;-56
2023/09/10 00:53:22;;;;;;;20.95;13.95;;;13.90;99.90;;;;;;5038846;28;20037;-58
2023/09/10 00:55:48;;;;;;;26.55;17.60;;;13.90;99.90;;;;;;5041238;28;20022;-58
2023/09/10 00:58:14;;;;;;;27.27;17.17;;;13.90;99.90;;;;;;5035913;28;20120;-59
2023/09/10 01:00:42;;;;;;;23.95;17.13;;;13.90;99.90;;;;;;5029251;28;20501;-62
2023/09/10 01:03:08;;;;;;;23.88;16.02;;;13.80;99.90;;;;;;5048851;28;20041;-57
2023/09/10 01:05:35;;;;;;;23.40;15.20;;;13.80;99.90;;;;;;5027825;28;20026;-62
2023/09/10 01:08:03;;;;;;;19.45;14.27;;;13.80;99.90;;;;;;5039043;28;20547;-64
2023/09/10 01:10:42;;;;;;;19.00;14.88;;;13.80;99.90;;;;;;5030308;28;20033;-64
2023/09/10 01:13:32;;;;;;;18.00;13.57;;;13.70;99.90;;;;;;5019871;28;20021;-63
2023/09/10 01:16:06;;;;;;;16.05;12.48;;;13.70;99.90;;;;;;5036047;28;20026;-63
2023/09/10 01:18:36;;;;;;;16.33;12.65;;;13.70;99.90;;;;;;5009939;28;20033;-63
2023/09/10 01:21:36;;;;;;;16.60;11.98;;;13.70;99.90;;;;;;5038032;28;20018;-64
2023/09/10 01:24:33;;;;;;;14.68;11.88;;;13.60;99.90;;;;;;5019226;28;20029;-63
2023/09/10 01:26:59;;;;;;;17.55;11.73;;;13.60;99.90;;;;;;5030681;28;20029;-66
2023/09/10 01:29:25;;;;;;;15.82;11.90;;;13.60;99.90;;;;;;5037004;28;20163;-63
2023/09/10 01:31:57;;;;;;;17.23;11.30;;;13.60;99.90;;;;;;5036548;28;20564;-63
2023/09/10 01:34:27;;;;;;;17.58;12.00;;;13.60;99.90;;;;;;5024699;28;20483;-63
2023/09/10 01:36:59;;;;;;;16.30;12.18;;;13.50;99.90;;;;;;5023895;28;20516;-63
2023/09/10 01:39:36;;;;;;;19.00;12.32;;;13.50;99.90;;;;;;5025242;28;20596;-65
2023/09/10 01:42:05;;;;;;;15.15;11.73;;;13.50;99.90;;;;;;5008968;28;20041;-64
2023/09/10 01:44:32;;;;;;;15.95;11.52;;;13.50;99.90;;;;;;5047392;28;20083;-64
2023/09/10 01:46:59;;;;;;;14.82;11.52;;;13.50;99.90;;;;;;5032565;28;20030;-64
2023/09/10 01:49:25;;;;;;;15.15;11.65;;;13.40;99.90;;;;;;5033812;28;20029;-64
2023/09/10 01:51:50;;;;;;;14.25;11.02;;;13.40;99.90;;;;;;5033044;28;20033;-64
2023/09/10 01:54:16;;;;;;;15.05;11.77;;;13.40;99.90;;;;;;5048369;28;20064;-63
2023/09/10 01:56:41;;;;;;;14.15;10.07;;;13.40;99.90;;;;;;5024602;28;20494;-64
2023/09/10 01:59:07;;;;;;;14.18;10.77;;;13.40;99.90;;;;;;5036810;28;20098;-64
2023/09/10 02:01:32;;;;;;;15.52;10.40;;;13.40;99.90;;;;;;5052710;28;20025;-64
2023/09/10 02:03:58;;;;;;;12.90;10.70;;;13.30;99.90;;;;;;5035435;28;20032;-64
2023/09/10 02:06:23;;;;;;;12.95;10.40;;;13.30;99.90;;;;;;5021699;28;20033;-64
2023/09/10 02:08:49;;;;;;;13.20;10.50;;;13.30;99.90;;;;;;5049054;28;20061;-63
2023/09/10 02:11:14;;;;;;;12.23;10.25;;;13.30;99.90;;;;;;5052201;28;20401;-64
2023/09/10 02:13:41;;;;;;;13.50;10.68;;;13.30;99.90;;;;;;5037044;28;20052;-63
2023/09/10 02:16:07;;;;;;;14.50;10.50;;;13.20;99.90;;;;;;5049081;28;20021;-64
2023/09/10 02:18:32;;;;;;;13.98;10.98;;;13.20;99.90;;;;;;5034072;28;20030;-65
2023/09/10 02:20:58;;;;;;;12.32;10.10;;;13.20;99.90;;;;;;5050822;28;20477;-63
2023/09/10 02:23:23;;;;;;;12.52;10.18;;;13.20;99.90;;;;;;5032539;28;20025;-63
2023/09/10 02:25:49;;;;;;;13.25;9.90;;;13.20;99.90;;;;;;5051484;28;20036;-64
2023/09/10 02:28:14;;;;;;;10.80;9.25;;;13.10;99.90;;;;;;5050868;28;20087;-64
2023/09/10 02:30:40;;;;;;;14.32;10.32;;;13.10;99.90;;;;;;5032282;28;20319;-64
2023/09/10 02:33:06;;;;;;;12.20;9.65;;;13.10;99.90;;;;;;5040566;28;20033;-64
2023/09/10 02:35:32;;;;;;;12.05;9.25;;;13.10;99.90;;;;;;5033135;28;20045;-64
2023/09/10 02:37:57;;;;;;;13.30;10.48;;;13.00;99.90;;;;;;5050537;28;20029;-64
2023/09/10 02:40:23;;;;;;;13.32;10.45;;;13.00;99.90;;;;;;5032172;28;20037;-64
2023/09/10 02:42:48;;;;;;;14.18;10.38;;;13.00;99.90;;;;;;5050981;28;20045;-64
2023/09/10 02:45:14;;;;;;;14.93;10.80;;;13.00;99.90;;;;;;5030751;28;20029;-64
2023/09/10 02:47:39;;;;;;;14.93;10.75;;;13.00;99.90;;;;;;5023091;28;20037;-64
2023/09/10 02:50:05;;;;;;;13.52;10.63;;;12.90;99.90;;;;;;5030665;28;20036;-64
2023/09/10 02:52:31;;;;;;;12.70;10.43;;;12.90;99.90;;;;;;5050630;28;20033;-64
2023/09/10 02:54:57;;;;;;;13.20;10.50;;;12.90;99.90;;;;;;5032003;28;20037;-64
2023/09/10 02:57:22;;;;;;;11.48;9.75;;;12.90;99.90;;;;;;5017290;28;20044;-64
2023/09/10 02:59:48;;;;;;;13.57;10.07;;;12.90;99.90;;;;;;5037909;28;20042;-64
2023/09/10 03:02:13;;;;;;;15.23;10.75;;;12.80;99.90;;;;;;5042083;28;20040;-64
2023/09/10 03:04:39;;;;;;;18.17;11.63;;;12.80;99.90;;;;;;5048194;28;20033;-64
2023/09/10 03:07:04;;;;;;;14.75;11.15;;;12.80;99.90;;;;;;5019456;28;20033;-65
2023/09/10 03:09:30;;;;;;;14.02;10.68;;;12.80;99.90;;;;;;5047998;28;20025;-64
2023/09/10 03:12:22;;;;;;;13.32;10.18;;;12.80;99.90;;;;;;5016740;28;20076;-64
2023/09/10 03:14:48;;;;;;;12.70;10.38;;;12.80;99.90;;;;;;5029256;28;20079;-64
2023/09/10 03:17:13;;;;;;;11.95;9.82;;;12.80;99.90;;;;;;5016067;28;20454;-64
2023/09/10 03:19:40;;;;;;;16.13;10.63;;;12.80;99.90;;;;;;5041758;28;20063;-64
2023/09/10 03:22:06;;;;;;;12.60;10.63;;;12.70;99.90;;;;;;5031243;28;20450;-65
2023/09/10 03:24:34;;;;;;;14.40;10.85;;;12.70;99.90;;;;;;5049107;28;20107;-64
2023/09/10 03:27:00;;;;;;;14.43;11.15;;;12.70;99.90;;;;;;5019601;28;20033;-65
2023/09/10 03:29:25;;;;;;;14.40;11.30;;;12.70;99.90;;;;;;5042897;28;20035;-64
2023/09/10 03:31:51;;;;;;;15.73;10.95;;;12.70;99.90;;;;;;5038065;28;20417;-65
2023/09/10 03:34:17;;;;;;;16.52;11.77;;;12.70;99.90;;;;;;5031753;28;20133;-64
2023/09/10 03:36:42;;;;;;;14.48;11.38;;;12.70;99.90;;;;;;5030872;28;20220;-65
2023/09/10 03:39:08;;;;;;;14.30;11.30;;;12.70;99.90;;;;;;5047416;28;20388;-64
2023/09/10 03:41:33;;;;;;;12.45;10.60;;;12.60;99.90;;;;;;5050581;28;20032;-63
2023/09/10 03:43:59;;;;;;;16.00;11.63;;;12.60;99.90;;;;;;5021036;28;20025;-64
2023/09/10 03:46:25;;;;;;;14.90;10.82;;;12.60;99.90;;;;;;5029575;28;20032;-64
2023/09/10 03:48:50;;;;;;;15.40;11.13;;;12.60;99.90;;;;;;5034073;28;20511;-64
2023/09/10 03:51:16;;;;;;;12.73;10.98;;;12.50;99.90;;;;;;5050263;28;20390;-64
2023/09/10 03:53:41;;;;;;;14.30;10.75;;;12.50;99.90;;;;;;5032689;28;20041;-64
2023/09/10 03:56:07;;;;;;;15.00;10.88;;;12.50;99.90;;;;;;5050418;28;20615;-64
2023/09/10 03:58:32;;;;;;;14.77;10.35;;;12.50;99.90;;;;;;5028542;28;20045;-64
2023/09/10 04:00:58;;;;;;;13.80;10.25;;;12.50;99.90;;;;;;5049739;28;20029;-65
2023/09/10 04:03:25;;;;;;;14.77;11.63;;;12.50;99.90;;;;;;5048518;28;20033;-64
2023/09/10 04:05:52;;;;;;;16.85;11.77;;;12.50;99.90;;;;;;5047246;28;20106;-64
2023/09/10 04:08:18;;;;;;;16.42;12.23;;;12.50;99.90;;;;;;5026418;28;20040;-64
2023/09/10 04:10:43;;;;;;;16.65;11.35;;;12.50;99.90;;;;;;5030602;28;20138;-64
2023/09/10 04:13:09;;;;;;;16.35;12.15;;;12.40;99.90;;;;;;5038406;28;20389;-64
2023/09/10 04:15:34;;;;;;;14.00;10.88;;;12.40;99.90;;;;;;5036037;28;20086;-63
2023/09/10 04:18:00;;;;;;;16.63;11.68;;;12.40;99.90;;;;;;5042034;28;20044;-64
2023/09/10 04:20:25;;;;;;;15.05;10.98;;;12.40;99.90;;;;;;5030267;28;20041;-64
2023/09/10 04:22:51;;;;;;;13.63;10.20;;;12.40;99.90;;;;;;5048955;28;20487;-63
2023/09/10 04:25:16;;;;;;;15.60;12.07;;;12.40;99.90;;;;;;5028782;28;20101;-63
2023/09/10 04:27:42;;;;;;;14.20;11.05;;;12.30;99.90;;;;;;5049058;28;20207;-63
2023/09/10 04:30:07;;;;;;;16.00;11.15;;;12.40;99.90;;;;;;5022458;28;20403;-63
2023/09/10 04:32:33;;;;;;;16.63;11.65;;;12.40;99.90;;;;;;5048082;28;20513;-63
2023/09/10 04:34:58;;;;;;;16.92;12.55;;;12.30;99.90;;;;;;5016359;28;20104;-63
2023/09/10 04:37:24;;;;;;;15.57;11.65;;;12.30;99.90;;;;;;5046466;28;20091;-63
2023/09/10 04:39:51;;;;;;;18.05;11.98;;;12.40;99.90;;;;;;5029721;28;20105;-63
2023/09/10 04:42:17;;;;;;;14.90;12.13;;;12.40;99.90;;;;;;5048974;28;20048;-63
2023/09/10 04:44:42;;;;;;;16.85;12.52;;;12.40;99.90;;;;;;5021806;28;20427;-63
2023/09/10 04:47:08;;;;;;;17.00;12.65;;;12.40;99.90;;;;;;5047878;28;20047;-63
2023/09/10 04:49:33;;;;;;;17.23;12.77;;;12.40;99.90;;;;;;5037661;28;20052;-63
2023/09/10 04:51:59;;;;;;;16.48;12.40;;;12.40;99.90;;;;;;5029747;28;20103;-63
2023/09/10 04:54:24;;;;;;;16.52;13.52;;;12.50;99.90;;;;;;5047180;28;20021;-63
2023/09/10 04:56:53;;;;;;;15.95;12.02;;;12.50;99.90;;;;;;5029490;28;20114;-63
2023/09/10 04:59:19;;;;;;;15.45;12.05;;;12.60;99.90;;;;;;5036349;28;20072;-63
2023/09/10 05:01:45;;;;;;;17.35;12.65;;;12.60;99.90;;;;;;5009299;28;20037;-63
2023/09/10 05:04:10;;;;;;;16.85;12.23;;;12.60;99.90;;;;;;5046582;28;20029;-63
2023/09/10 05:06:36;;;;;;;15.68;12.13;;;12.70;99.90;;;;;;5048876;28;20091;-63
2023/09/10 05:09:02;;;;;;;15.63;11.52;;;12.70;99.90;;;;;;5033913;28;20044;-63
2023/09/10 05:11:27;;;;;;;14.90;11.85;;;12.80;99.90;;;;;;5048848;28;20036;-63
2023/09/10 05:13:52;;;;;;;15.35;12.07;;;12.80;99.90;;;;;;5026382;28;20033;-63
2023/09/10 05:16:18;;;;;;;17.42;12.20;;;12.90;99.90;;;;;;5029008;28;20030;-63
2023/09/10 05:18:44;;;;;;;14.93;11.90;;;13.00;99.90;;;;;;5030849;28;20146;-63
2023/09/10 05:21:09;;;;;;;14.35;11.98;;;13.00;99.90;;;;;;5048487;28;20374;-63
2023/09/10 05:23:35;;;;;;;16.13;12.68;;;13.10;99.90;;;;;;5030129;28;20064;-63
2023/09/10 05:26:02;;;;;;;17.30;12.70;;;13.30;99.90;;;;;;5047323;28;20435;-63
2023/09/10 05:28:27;;;;;;;12.00;10.43;;;14.10;99.90;;;;;;5016985;28;20042;-62
2023/09/10 05:30:53;;;;;;;13.27;10.00;;;15.00;99.90;;;;;;5029124;28;20091;-62
2023/09/10 05:33:18;;;;;;;11.30;9.65;;;15.90;99.90;;;;;;5014559;28;20038;-63
2023/09/10 05:35:54;;;;;;;13.20;10.00;;;16.80;99.90;;;;;;5047265;28;20044;-63
2023/09/10 05:38:19;;;;;;;12.68;10.40;;;17.60;99.90;;;;;;5009102;28;20038;-64
2023/09/10 05:40:45;;;;;;;11.02;9.18;;;18.40;99.90;;;;;;5028437;28;20033;-64
2023/09/10 05:43:10;;;;;;;9.38;7.95;;;19.10;99.00;;;;;;5037928;28;20033;-64
2023/09/10 05:45:36;;;;;;;9.60;8.13;;;19.90;97.00;;;;;;5029041;28;20065;-63
2023/09/10 05:48:01;;;;;;;9.15;7.68;;;20.50;95.50;;;;;;5035306;28;20116;-63
2023/09/10 05:50:27;;;;;;;9.48;7.55;;;21.30;93.90;;;;;;5028680;28;20040;-63
2023/09/10 05:52:56;;;;;;;8.35;7.28;;;21.90;92.40;;;;;;5047506;28;20037;-63
2023/09/10 05:55:23;;;;;;;8.63;7.72;;;22.60;91.10;;;;;;5028422;28;20083;-63
2023/09/10 05:57:49;;;;;;;8.65;7.63;;;23.20;90.00;;;;;;5032508;28;20037;-63
2023/09/10 06:00:15;;;;;;;8.73;7.53;;;23.80;86.50;;;;;;5015202;28;20041;-63
2023/09/10 06:02:40;;;;;;;8.52;7.05;;;24.40;84.60;;;;;;5046190;28;20068;-63
2023/09/10 06:05:06;;;;;;;8.90;7.65;;;24.90;82.40;;;;;;5013854;28;20044;-63
2023/09/10 06:07:31;;;;;;;8.82;7.68;;;25.30;79.30;;;;;;5039333;28;20033;-63
2023/09/10 06:09:57;;;;;;;9.02;7.47;;;25.80;78.00;;;;;;5032457;28;20101;-63
2023/09/10 06:12:22;;;;;;;8.20;7.40;;;26.20;76.00;;;;;;5033363;28;20049;-63
2023/09/10 06:14:48;;;;;;;7.72;6.50;;;26.60;74.70;;;;;;5042116;28;20021;-63
2023/09/10 06:17:14;;;;;;;8.85;7.07;;;27.00;72.80;;;;;;5028758;28;20132;-63
2023/09/10 06:19:39;;;;;;;7.05;6.35;;;27.50;71.50;;;;;;5038141;28;20076;-63
2023/09/10 06:22:04;;;;;;;7.63;6.82;;;28.00;69.40;;;;;;5025551;28;20022;-64
2023/09/10 06:24:30;;;;;;;10.35;7.35;;;28.50;67.50;;;;;;5045691;28;20033;-63
2023/09/10 06:26:55;;;;;;;7.70;6.57;;;28.80;66.10;;;;;;5028009;28;20014;-63
2023/09/10 06:29:21;;;;;;;7.90;6.18;;;29.20;65.00;;;;;;5036006;28;20453;-63
2023/09/10 06:31:47;;;;;;;7.07;6.38;;;29.60;63.10;;;;;;5026532;28;20079;-64
2023/09/10 06:34:12;;;;;;;8.02;6.85;;;29.90;61.80;;;;;;5025047;28;20033;-64
2023/09/10 06:36:38;;;;;;;7.40;6.70;;;30.30;60.20;;;;;;5038439;28;20026;-64
2023/09/10 06:39:04;;;;;;;6.72;6.10;;;30.70;58.80;;;;;;5050073;28;20013;-64
2023/09/10 06:41:29;;;;;;;8.13;6.32;;;31.20;56.40;;;;;;5048946;28;20090;-64
2023/09/10 06:43:55;;;;;;;7.18;6.28;;;31.70;54.50;;;;;;5031747;28;20527;-63
2023/09/10 06:46:21;;;;;;;6.63;5.95;;;32.10;52.20;;;;;;5051760;28;20413;-63
2023/09/10 06:48:46;;;;;;;7.55;6.80;;;32.50;49.60;;;;;;5033210;28;20488;-63
2023/09/10 06:51:11;;;;;;;6.80;5.55;;;32.70;47.80;;;;;;5032234;28;20038;-64
2023/09/10 06:53:37;;;;;;;6.35;5.75;;;33.10;46.40;;;;;;5022653;28;20034;-64
2023/09/10 06:56:03;;;;;;;6.65;5.40;;;33.50;45.00;;;;;;5014894;28;20554;-64
2023/09/10 06:58:28;;;;;;;7.53;6.38;;;33.80;43.50;;;;;;5048783;28;20044;-63
2023/09/10 07:00:53;;;;;;;7.13;5.88;;;34.00;41.90;;;;;;5051329;28;20101;-64
2023/09/10 07:03:19;;;;;;;6.28;5.68;;;34.20;40.00;;;;;;5031774;28;20037;-64
2023/09/10 07:05:44;;;;;;;6.63;5.80;;;34.40;38.20;;;;;;5050105;28;20033;-63
2023/09/10 07:08:13;;;;;;;6.32;5.72;;;34.60;37.10;;;;;;5013706;28;20030;-64
2023/09/10 07:10:39;;;;;;;6.93;6.22;;;34.70;35.20;;;;;;5031237;28;20018;-64
2023/09/10 07:13:05;;;;;;;6.60;5.88;;;34.90;33.80;;;;;;5038133;28;20512;-64
2023/09/10 07:15:35;;;;;;;6.80;5.30;;;35.10;32.20;;;;;;5013726;28;20037;-64
2023/09/10 07:18:01;;;;;;;8.93;5.07;;;35.40;30.00;;;;;;5049956;28;20512;-64
2023/09/10 07:20:27;;;;;;;6.63;5.95;;;35.50;29.90;;;;;;5029535;28;20026;-64
2023/09/10 07:22:52;;;;;;;6.22;5.43;;;35.40;28.80;;;;;;5042165;28;20025;-63
2023/09/10 07:25:18;;;;;;;6.13;5.50;;;35.10;28.10;;;;;;5020225;28;20229;-64
2023/09/10 07:27:44;;;;;;;5.80;5.30;;;34.90;28.10;;;;;;5032850;28;20029;-63
2023/09/10 07:30:11;;;;;;;6.47;5.88;;;34.80;27.70;;;;;;5016840;28;20437;-63
2023/09/10 07:32:36;;;;;;;5.72;5.20;;;34.70;27.10;;;;;;5030726;28;20041;-63
2023/09/10 07:35:02;;;;;;;5.68;5.05;;;34.60;26.80;;;;;;5035886;28;20430;-63
2023/09/10 07:37:27;;;;;;;5.18;4.68;;;34.70;26.30;;;;;;5049888;28;20461;-63
2023/09/10 07:39:53;;;;;;;6.45;5.25;;;34.70;22.80;;;;;;5023118;28;20088;-64
2023/09/10 07:42:18;;;;;;;5.90;5.40;;;34.70;25.70;;;;;;5038096;28;20116;-63
2023/09/10 07:44:44;;;;;;;6.07;5.47;;;34.80;25.30;;;;;;5047164;28;20052;-63
2023/09/10 07:47:09;;;;;;;5.22;4.72;;;34.80;25.00;;;;;;5030306;28;20394;-63
2023/09/10 07:49:35;;;;;;;5.80;5.20;;;34.70;25.00;;;;;;5031740;28;20108;-63
2023/09/10 07:52:03;;;;;;;5.30;4.80;;;34.50;24.50;;;;;;5017702;28;20130;-64
2023/09/10 07:54:29;;;;;;;5.80;5.13;;;34.40;24.20;;;;;;5030905;28;20045;-64
2023/09/10 07:56:55;;;;;;;5.68;5.13;;;34.30;23.60;;;;;;5022642;28;20074;-64
2023/09/10 07:59:20;;;;;;;6.78;5.40;;;34.20;23.50;;;;;;5010575;28;20044;-63
2023/09/10 08:01:46;;;;;;;6.95;5.32;;;34.10;23.30;;;;;;5047413;28;20558;-63
2023/09/10 08:04:11;;;;;;;5.65;5.15;;;34.00;23.00;;;;;;5049930;28;20479;-63
2023/09/10 08:06:37;;;;;;;5.40;4.90;;;33.90;23.10;;;;;;5032888;28;20524;-62
2023/09/10 08:09:03;;;;;;;6.10;5.50;;;33.80;23.40;;;;;;5049808;28;20444;-63
2023/09/10 08:11:28;;;;;;;6.43;5.30;;;34.00;22.60;;;;;;5033054;28;20097;-63
2023/09/10 08:13:54;;;;;;;5.97;5.47;;;34.00;21.80;;;;;;5032322;28;20517;-63
2023/09/10 08:16:19;;;;;;;5.80;5.30;;;33.90;21.80;;;;;;5047870;28;20104;-63
2023/09/10 08:18:45;;;;;;;5.93;5.32;;;33.90;21.90;;;;;;5048239;28;20048;-63
2023/09/10 08:21:11;;;;;;;5.68;4.60;;;33.70;22.20;;;;;;5030528;28;20048;-62
2023/09/10 08:23:37;;;;;;;4.85;4.45;;;33.60;22.50;;;;;;5049622;28;20055;-65
2023/09/10 08:26:03;;;;;;;5.90;5.00;;;33.50;22.40;;;;;;5028232;28;20442;-64
2023/09/10 08:28:29;;;;;;;5.65;5.00;;;33.40;22.20;;;;;;5049623;28;20104;-65
2023/09/10 08:30:54;;;;;;;5.55;4.97;;;33.50;22.10;;;;;;5030003;28;20036;-66
2023/09/10 08:33:21;;;;;;;4.72;4.32;;;33.50;22.10;;;;;;5030136;28;20037;-65
2023/09/10 08:35:51;;;;;;;5.38;4.85;;;33.50;22.10;;;;;;5048845;28;20124;-65
2023/09/10 08:38:16;;;;;;;6.15;4.60;;;33.70;21.60;;;;;;5029124;28;20034;-65
2023/09/10 08:40:56;;;;;;;5.60;4.65;;;33.60;21.70;;;;;;5048582;28;20095;-65
2023/09/10 08:43:32;;;;;;;6.70;4.95;;;33.70;21.80;;;;;;5028678;28;20533;-65
2023/09/10 08:45:58;;;;;;;5.75;5.00;;;33.60;21.70;;;;;;5008188;28;20032;-65
2023/09/10 08:48:24;;;;;;;6.88;4.70;;;33.40;21.80;;;;;;5047645;28;20025;-66
2023/09/10 08:50:51;;;;;;;5.20;4.70;;;33.30;21.90;;;;;;5029586;28;20021;-65
2023/09/10 08:53:19;;;;;;;7.72;5.05;;;33.40;21.90;;;;;;5029648;28;20029;-65
2023/09/10 08:55:47;;;;;;;5.65;5.07;;;33.60;21.50;;;;;;5048005;28;20033;-65
2023/09/10 08:58:13;;;;;;;4.65;4.25;;;33.70;20.90;;;;;;5027333;28;20032;-66
2023/09/10 09:00:41;;;;;;;5.53;4.80;;;33.80;20.90;;;;;;5046941;28;20447;-65
2023/09/10 09:03:06;;;;;;;5.63;5.05;;;33.90;20.80;;;;;;5029048;28;20029;-65
2023/09/10 09:05:34;;;;;;;6.10;5.50;;;33.90;20.60;;;;;;5048111;28;20082;-65
2023/09/10 09:08:10;;;;;;;5.80;5.20;;;33.70;20.40;;;;;;5028977;28;20034;-65
2023/09/10 09:10:35;;;;;;;6.30;4.97;;;33.70;20.20;;;;;;5009224;28;20033;-65
2023/09/10 09:13:08;;;;;;;5.40;4.90;;;33.80;20.20;;;;;;5031387;28;20036;-65
2023/09/10 09:15:37;;;;;;;8.98;5.20;;;33.90;20.20;;;;;;5048730;28;20021;-65
2023/09/10 09:18:04;;;;;;;5.60;5.07;;;34.00;19.90;;;;;;5028505;28;20045;-65
2023/09/10 09:20:31;;;;;;;6.43;5.68;;;34.20;19.70;;;;;;5046950;28;20044;-65
2023/09/10 09:23:04;;;;;;;5.70;5.07;;;34.20;19.50;;;;;;5028849;28;20678;-65
2023/09/10 09:25:30;;;;;;;5.60;5.10;;;34.30;19.50;;;;;;5009021;28;20041;-65
2023/09/10 09:27:57;;;;;;;5.35;4.85;;;34.30;19.40;;;;;;5029777;28;20029;-65
2023/09/10 09:30:22;;;;;;;5.68;5.18;;;34.20;19.50;;;;;;5047865;28;20033;-65
2023/09/10 09:32:49;;;;;;;7.85;5.40;;;34.20;19.60;;;;;;5028992;28;20050;-65
2023/09/10 09:35:14;;;;;;;5.15;4.68;;;34.10;19.40;;;;;;5047807;28;20122;-66
2023/09/10 09:37:40;;;;;;;5.95;5.15;;;34.20;19.20;;;;;;5028825;28;20061;-65
2023/09/10 09:40:09;;;;;;;5.05;4.55;;;34.30;18.90;;;;;;5047736;28;20453;-66
2023/09/10 09:42:38;;;;;;;5.60;4.85;;;34.30;18.70;;;;;;5028408;28;20029;-64
2023/09/10 09:45:04;;;;;;;5.63;5.10;;;34.20;18.40;;;;;;5048235;28;20170;-65
2023/09/10 09:47:31;;;;;;;6.45;4.82;;;34.10;18.30;;;;;;5028721;28;20037;-66
2023/09/10 09:49:57;;;;;;;5.50;5.00;;;34.20;18.30;;;;;;5047632;28;20138;-65
2023/09/10 09:52:23;;;;;;;6.93;5.07;;;34.30;18.10;;;;;;5038932;28;20082;-64
2023/09/10 09:54:48;;;;;;;5.32;4.80;;;34.30;17.90;;;;;;5028913;28;20038;-65
2023/09/10 09:57:15;;;;;;;5.88;5.22;;;34.30;17.60;;;;;;5017548;28;20045;-65
2023/09/10 09:59:41;;;;;;;5.53;5.03;;;34.20;17.30;;;;;;5028216;28;20535;-65
2023/09/10 10:02:15;;;;;;;5.63;5.07;;;34.20;17.40;;;;;;5033070;28;20038;-65
2023/09/10 10:04:43;;;;;;;5.20;4.70;;;34.20;16.70;;;;;;5029061;28;20076;-65
2023/09/10 10:07:11;;;;;;;4.93;4.45;;;34.20;16.80;;;;;;5033445;28;20371;-65
2023/09/10 10:09:38;;;;;;;5.47;4.82;;;34.10;16.60;;;;;;5052010;28;20154;-64
2023/09/10 10:12:04;;;;;;;5.40;4.18;;;34.00;16.10;;;;;;5032600;28;20440;-65
2023/09/10 10:14:32;;;;;;;5.47;4.90;;;34.00;15.60;;;;;;5028980;28;20535;-65
2023/09/10 10:17:00;;;;;;;5.38;4.60;;;33.90;15.10;;;;;;5015653;28;20087;-64
2023/09/10 10:19:26;;;;;;;4.50;4.10;;;33.90;14.80;;;;;;5023019;28;20112;-65
2023/09/10 10:21:54;;;;;;;5.07;4.53;;;33.60;14.70;;;;;;5014511;28;20097;-65
2023/09/10 10:24:20;;;;;;;4.80;4.40;;;33.40;14.50;;;;;;5025318;28;20406;-66
2023/09/10 10:26:48;;;;;;;4.90;4.22;;;33.20;14.10;;;;;;5051115;28;20049;-65
2023/09/10 10:29:15;;;;;;;5.15;4.65;;;32.90;14.20;;;;;;5030282;28;20028;-65
2023/09/10 10:31:44;;;;;;;4.70;4.13;;;32.70;14.30;;;;;;5044514;28;20084;-64
2023/09/10 10:34:15;;;;;;;5.32;3.83;;;32.40;15.00;;;;;;5031609;28;20033;-65
2023/09/10 10:36:50;;;;;;;5.38;4.88;;;32.20;15.30;;;;;;5011771;28;20034;-63
2023/09/10 10:39:17;;;;;;;4.90;3.95;;;32.10;15.50;;;;;;5031603;28;20029;-65
2023/09/10 10:41:45;;;;;;;4.72;4.25;;;31.90;15.70;;;;;;5050955;28;20455;-64
2023/09/10 10:44:32;;;;;;;4.90;3.88;;;31.80;15.70;;;;;;5031581;28;20397;-65
2023/09/10 10:47:22;;;;;;;5.32;4.20;;;31.70;16.00;;;;;;5011224;28;20121;-63
2023/09/10 10:49:53;;;;;;;5.30;4.05;;;31.30;14.40;;;;;;5050160;28;20029;-65
2023/09/10 10:52:28;;;;;;;5.80;3.90;;;31.10;15.40;;;;;;5034092;28;20048;-64
2023/09/10 10:54:55;;;;;;;6.93;3.55;;;31.00;15.30;;;;;;5051322;28;20033;-65
2023/09/10 10:57:21;;;;;;;5.13;4.32;;;31.00;15.10;;;;;;5033750;28;20033;-64
2023/09/10 10:59:48;;;;;;;5.85;4.10;;;30.70;15.00;;;;;;5051193;28;20370;-64
2023/09/10 11:02:22;;;;;;;6.80;3.97;;;30.60;15.00;;;;;;5033665;28;20033;-64
2023/09/10 11:05:02;;;;;;;4.80;4.13;;;30.60;15.60;;;;;;5051081;28;20017;-64
2023/09/10 11:07:29;;;;;;;4.78;4.05;;;30.50;14.90;;;;;;5020809;28;20052;-64
2023/09/10 11:10:27;;;;;;;4.95;4.05;;;30.40;15.00;;;;;;5049647;28;20036;-65
2023/09/10 11:13:06;;;;;;;4.25;3.85;;;30.30;14.40;;;;;;5035707;28;20017;-64
2023/09/10 11:15:31;;;;;;;4.50;3.92;;;30.30;14.80;;;;;;5031298;28;20100;-63
2023/09/10 11:18:34;;;;;;;5.35;3.72;;;30.30;15.00;;;;;;5048614;28;20053;-63
2023/09/10 11:21:01;;;;;;;5.38;3.80;;;30.30;15.30;;;;;;5031589;28;20047;-65
2023/09/10 11:23:27;;;;;;;4.40;4.00;;;30.20;14.70;;;;;;5036876;28;20021;-65
2023/09/10 11:25:52;;;;;;;4.45;4.03;;;30.20;14.80;;;;;;5049912;28;20581;-64
2023/09/10 11:28:47;;;;;;;5.45;4.07;;;30.30;14.90;;;;;;5029248;28;20237;-64
2023/09/10 11:34:17;;;;;;;5.43;4.00;;;30.10;14.30;;;;;;5032552;28;20030;-64
2023/09/10 11:36:45;;;;;;;4.20;3.60;;;30.00;14.80;;;;;;5048253;28;20527;-64
2023/09/10 11:39:13;;;;;;;4.25;3.22;;;30.00;15.20;;;;;;5030619;28;20500;-65
2023/09/10 11:41:38;;;;;;;4.75;3.83;;;30.00;15.30;;;;;;5048698;28;20519;-64
2023/09/10 11:44:04;;;;;;;3.97;3.58;;;30.00;15.40;;;;;;5030685;28;20057;-65
2023/09/10 11:46:30;;;;;;;3.45;3.13;;;29.90;15.10;;;;;;5049670;28;20035;-64
2023/09/10 11:48:55;;;;;;;4.53;3.35;;;29.90;15.10;;;;;;5030902;28;20029;-64
2023/09/10 11:51:20;;;;;;;4.47;3.80;;;29.90;15.10;;;;;;5049412;28;20067;-64
2023/09/10 11:53:46;;;;;;;4.45;4.05;;;29.90;15.10;;;;;;5030763;28;20515;-65
2023/09/10 11:56:12;;;;;;;5.22;4.38;;;29.80;15.70;;;;;;5049280;28;20021;-65
2023/09/10 11:58:38;;;;;;;7.00;4.53;;;29.70;15.50;;;;;;5027443;28;20121;-65
2023/09/10 12:01:04;;;;;;;5.28;4.07;;;29.60;15.80;;;;;;5049381;28;20028;-64
2023/09/10 12:03:31;;;;;;;5.38;4.28;;;29.50;15.80;;;;;;5030291;28;20044;-65
2023/09/10 12:05:59;;;;;;;5.38;3.88;;;29.60;15.70;;;;;;5049314;28;20515;-64
2023/09/10 12:08:25;;;;;;;7.95;4.18;;;29.60;15.70;;;;;;5030245;28;20026;-64
2023/09/10 12:10:55;;;;;;;7.43;3.70;;;29.60;15.70;;;;;;5049307;28;20052;-65
2023/09/10 12:13:21;;;;;;;5.95;4.03;;;29.60;15.70;;;;;;5032758;28;20078;-61
2023/09/10 12:15:47;;;;;;;4.68;3.95;;;29.60;15.70;;;;;;5030219;28;20044;-61
2023/09/10 12:18:13;;;;;;;5.28;4.35;;;29.70;15.60;;;;;;5047854;28;20049;-61
2023/09/10 12:20:38;;;;;;;4.72;4.22;;;29.60;15.70;;;;;;5030214;28;20533;-62
2023/09/10 12:23:04;;;;;;;5.28;4.53;;;29.50;15.20;;;;;;5047918;28;20029;-63
2023/09/10 12:25:30;;;;;;;5.53;4.82;;;29.40;15.30;;;;;;5028679;28;20111;-63
2023/09/10 12:27:57;;;;;;;5.15;4.25;;;29.40;15.30;;;;;;5045562;28;20484;-63
2023/09/10 12:30:23;;;;;;;5.80;4.50;;;29.30;15.50;;;;;;5029281;28;20039;-62
2023/09/10 12:32:50;;;;;;;4.95;3.97;;;29.40;15.50;;;;;;5047398;28;20033;-63
2023/09/10 12:35:15;;;;;;;5.38;3.88;;;29.30;15.50;;;;;;5049291;28;20025;-63
2023/09/10 12:37:49;;;;;;;5.45;3.90;;;29.30;15.70;;;;;;5035497;28;20044;-62
2023/09/10 12:40:15;;;;;;;4.65;3.85;;;29.30;15.30;;;;;;5049487;28;20025;-63
2023/09/10 12:42:41;;;;;;;5.07;3.83;;;29.40;15.40;;;;;;5035576;28;20028;-62